Time,TemperatureF,DewpointF,PressureIn,WindDirection,WindDirectionDegrees,WindSpeedMPH,WindSpeedGustMPH,Humidity,HourlyPrecipIn,Conditions,Clouds,dailyrainin,SoftwareType,DateUTC
2013-04-21 00:05:00,45.8,38.0,29.99,SW,225,0.0,0.0,74,0.00,,,0.00,Wunderground v.1.15,2013-04-21 06:05:00,
2013-04-21 00:15:00,45.2,37.4,30.00,SW,225,0.0,0.0,74,0.00,,,0.00,Wunderground v.1.15,2013-04-21 06:15:00,
2013-04-21 00:20:00,44.8,37.4,30.00,SW,225,0.0,0.0,75,0.00,,,0.00,Wunderground v.1.15,2013-04-21 06:20:00,
2013-04-21 00:30:00,44.1,37.3,30.01,SW,225,0.0,2.0,77,0.00,,,0.00,Wunderground v.1.15,2013-04-21 06:30:00,
2013-04-21 00:40:00,43.4,37.0,30.01,SW,225,0.0,0.0,78,0.00,,,0.00,Wunderground v.1.15,2013-04-21 06:40:00,
2013-04-21 00:45:00,43.0,36.6,30.01,SW,225,0.0,0.0,78,0.00,,,0.01,Wunderground v.1.15,2013-04-21 06:45:00,
2013-04-21 00:55:00,42.6,36.5,30.01,SW,225,0.0,0.0,79,0.00,,,0.01,Wunderground v.1.15,2013-04-21 06:55:00,
2013-04-21 01:05:00,42.3,36.3,30.02,SW,225,0.0,0.0,79,0.00,,,0.01,Wunderground v.1.15,2013-04-21 07:05:00,
2013-04-21 01:15:00,42.4,36.3,30.02,SW,225,0.0,0.0,79,0.00,,,0.01,Wunderground v.1.15,2013-04-21 07:15:00,
2013-04-21 01:25:00,42.4,36.7,30.03,SW,225,0.0,0.0,80,0.00,,,0.01,Wunderground v.1.15,2013-04-21 07:25:00,
2013-04-21 01:30:00,42.3,36.6,30.03,SW,225,0.0,0.0,80,0.00,,,0.01,Wunderground v.1.15,2013-04-21 07:30:00,
2013-04-21 01:40:00,42.2,36.8,30.03,SW,225,0.0,0.0,81,0.00,,,0.01,Wunderground v.1.15,2013-04-21 07:40:00,
2013-04-21 01:50:00,41.7,36.3,30.03,SW,225,0.0,0.0,81,0.00,,,0.01,Wunderground v.1.15,2013-04-21 07:50:00,
2013-04-21 01:55:00,41.4,36.0,30.03,SW,225,0.0,0.0,81,0.00,,,0.01,Wunderground v.1.15,2013-04-21 07:55:00,
2013-04-21 02:05:00,40.8,35.7,30.03,SW,225,0.0,0.0,82,0.00,,,0.01,Wunderground v.1.15,2013-04-21 08:05:00,
2013-04-21 02:20:00,40.3,35.8,30.03,SW,225,0.0,0.0,84,0.00,,,0.01,Wunderground v.1.15,2013-04-21 08:20:00,
2013-04-21 02:25:00,40.3,35.8,30.03,SW,225,0.0,1.0,84,0.00,,,0.01,Wunderground v.1.15,2013-04-21 08:25:00,
2013-04-21 02:35:00,40.3,35.8,30.03,SW,225,0.0,0.0,84,0.00,,,0.01,Wunderground v.1.15,2013-04-21 08:35:00,
2013-04-21 02:45:00,40.0,35.9,30.03,SW,225,0.0,0.0,85,0.00,,,0.01,Wunderground v.1.15,2013-04-21 08:45:00,
2013-04-21 02:55:00,39.8,35.7,30.03,SW,225,0.0,0.0,85,0.00,,,0.01,Wunderground v.1.15,2013-04-21 08:55:00,
2013-04-21 03:05:00,39.9,35.8,30.03,SW,225,0.0,0.0,85,0.00,,,0.01,Wunderground v.1.15,2013-04-21 09:05:00,
2013-04-21 03:15:00,39.4,35.3,30.03,SW,225,0.0,0.0,85,0.00,,,0.01,Wunderground v.1.15,2013-04-21 09:15:00,
2013-04-21 03:25:00,38.9,34.8,30.03,SW,225,0.0,1.0,85,0.00,,,0.01,Wunderground v.1.15,2013-04-21 09:25:00,
2013-04-21 03:30:00,38.8,34.7,30.03,SW,225,1.0,1.0,85,0.00,,,0.01,Wunderground v.1.15,2013-04-21 09:30:00,
2013-04-21 03:40:00,38.8,35.0,30.03,SW,225,0.0,0.0,86,0.00,,,0.01,Wunderground v.1.15,2013-04-21 09:40:00,
2013-04-21 03:45:00,38.8,35.0,30.03,SW,225,0.0,0.0,86,0.00,,,0.01,Wunderground v.1.15,2013-04-21 09:45:00,
2013-04-21 03:55:00,38.8,35.0,30.04,SW,225,1.0,2.0,86,0.00,,,0.01,Wunderground v.1.15,2013-04-21 09:55:00,
2013-04-21 04:05:00,38.6,34.8,30.04,SW,225,0.0,1.0,86,0.00,,,0.01,Wunderground v.1.15,2013-04-21 10:05:00,
2013-04-21 04:15:00,37.9,34.1,30.04,SW,225,0.0,0.0,86,0.00,,,0.01,Wunderground v.1.15,2013-04-21 10:15:00,
2013-04-21 04:20:00,37.7,33.9,30.04,SW,225,0.0,0.0,86,0.00,,,0.01,Wunderground v.1.15,2013-04-21 10:20:00,
2013-04-21 04:25:00,37.4,33.9,30.04,SW,225,0.0,0.0,87,0.00,,,0.01,Wunderground v.1.15,2013-04-21 10:25:00,
2013-04-21 04:35:00,37.3,33.8,30.05,SW,225,1.0,1.0,87,0.00,,,0.01,Wunderground v.1.15,2013-04-21 10:35:00,
2013-04-21 04:40:00,37.2,33.7,30.05,SW,225,1.0,1.0,87,0.00,,,0.01,Wunderground v.1.15,2013-04-21 10:40:00,
2013-04-21 04:50:00,36.9,33.4,30.05,SW,225,0.0,0.0,87,0.00,,,0.01,Wunderground v.1.15,2013-04-21 10:50:00,
2013-04-21 04:55:00,36.6,33.1,30.05,SW,225,0.0,0.0,87,0.00,,,0.01,Wunderground v.1.15,2013-04-21 10:55:00,
2013-04-21 05:05:00,36.4,33.2,30.06,SW,225,0.0,0.0,88,0.00,,,0.01,Wunderground v.1.15,2013-04-21 11:05:00,
2013-04-21 05:15:00,36.2,33.0,30.06,SW,225,1.0,1.0,88,0.00,,,0.01,Wunderground v.1.15,2013-04-21 11:15:00,
2013-04-21 05:25:00,36.3,33.1,30.06,SW,225,0.0,0.0,88,0.00,,,0.01,Wunderground v.1.15,2013-04-21 11:25:00,
2013-04-21 05:35:00,36.5,33.6,30.06,SW,225,0.0,0.0,89,0.00,,,0.01,Wunderground v.1.15,2013-04-21 11:35:00,
2013-04-21 05:40:00,36.6,33.7,30.06,SW,225,0.0,0.0,89,0.00,,,0.01,Wunderground v.1.15,2013-04-21 11:40:00,
2013-04-21 05:50:00,36.9,34.0,30.07,SW,225,1.0,1.0,89,0.00,,,0.01,Wunderground v.1.15,2013-04-21 11:50:00,
2013-04-21 06:00:00,36.8,33.9,30.07,SW,225,0.0,0.0,89,0.00,,,0.01,Wunderground v.1.15,2013-04-21 12:00:00,
2013-04-21 06:10:00,37.5,34.6,30.07,SW,225,1.0,2.0,89,0.00,,,0.01,Wunderground v.1.15,2013-04-21 12:10:00,
2013-04-21 06:20:00,38.6,35.6,30.07,SW,225,1.0,1.0,89,0.00,,,0.01,Wunderground v.1.15,2013-04-21 12:20:00,
2013-04-21 06:25:00,38.8,35.6,30.07,SW,225,0.0,3.0,88,0.00,,,0.01,Wunderground v.1.15,2013-04-21 12:25:00,
2013-04-21 06:35:00,39.2,35.7,30.07,SW,225,1.0,1.0,87,0.00,,,0.01,Wunderground v.1.15,2013-04-21 12:35:00,
2013-04-21 06:45:00,39.3,35.2,30.07,SW,225,1.0,2.0,85,0.00,,,0.01,Wunderground v.1.15,2013-04-21 12:45:00,
2013-04-21 06:55:00,39.3,34.9,30.07,SW,225,0.0,1.0,84,0.00,,,0.01,Wunderground v.1.15,2013-04-21 12:55:00,
2013-04-21 07:05:00,40.0,34.6,30.08,SW,225,0.0,0.0,81,0.00,,,0.01,Wunderground v.1.15,2013-04-21 13:05:00,
2013-04-21 07:10:00,40.6,34.6,30.08,SW,225,0.0,0.0,79,0.00,,,0.01,Wunderground v.1.15,2013-04-21 13:10:00,
2013-04-21 07:15:00,40.9,35.2,30.08,SW,225,0.0,2.0,80,0.00,,,0.01,Wunderground v.1.15,2013-04-21 13:15:00,
2013-04-21 07:25:00,40.6,35.5,30.09,SW,225,1.0,1.0,82,0.00,,,0.01,Wunderground v.1.15,2013-04-21 13:25:00,
2013-04-21 07:35:00,41.3,35.9,30.10,SW,225,0.0,0.0,81,0.00,,,0.01,Wunderground v.1.15,2013-04-21 13:35:00,
2013-04-21 07:45:00,42.4,36.7,30.10,SW,225,0.0,0.0,80,0.00,,,0.01,Wunderground v.1.15,2013-04-21 13:45:00,
2013-04-21 08:00:00,43.4,37.3,30.10,SW,225,0.0,0.0,79,0.00,,,0.01,Wunderground v.1.15,2013-04-21 14:00:00,
2013-04-21 08:10:00,44.1,37.7,30.10,SW,225,0.0,1.0,78,0.00,,,0.01,Wunderground v.1.15,2013-04-21 14:10:00,
2013-04-21 08:20:00,43.7,37.6,30.10,SW,225,1.0,3.0,79,0.00,,,0.01,Wunderground v.1.15,2013-04-21 14:20:00,
2013-04-21 08:25:00,44.0,37.9,30.10,SW,225,1.0,3.0,79,0.00,,,0.01,Wunderground v.1.15,2013-04-21 14:25:00,
2013-04-21 08:35:00,44.8,38.4,30.10,SW,225,1.0,2.0,78,0.00,,,0.01,Wunderground v.1.15,2013-04-21 14:35:00,
2013-04-21 08:40:00,45.2,38.7,30.10,SW,225,1.0,2.0,78,0.00,,,0.01,Wunderground v.1.15,2013-04-21 14:40:00,
2013-04-21 08:50:00,46.4,39.6,30.10,SW,225,2.0,2.0,77,0.00,,,0.01,Wunderground v.1.15,2013-04-21 14:50:00,
2013-04-21 09:00:00,47.5,39.6,30.10,SW,225,1.0,1.0,74,0.00,,,0.01,Wunderground v.1.15,2013-04-21 15:00:00,
2013-04-21 09:05:00,48.1,39.9,30.10,SW,225,1.0,1.0,73,0.00,,,0.01,Wunderground v.1.15,2013-04-21 15:05:00,
2013-04-21 09:15:00,48.5,39.2,30.09,East,100,3.0,5.0,70,0.00,,,0.01,Wunderground v.1.15,2013-04-21 15:15:00,
2013-04-21 09:25:00,49.2,37.9,30.09,ESE,103,4.0,5.0,65,0.00,,,0.01,Wunderground v.1.15,2013-04-21 15:25:00,
2013-04-21 09:35:00,50.2,38.9,30.09,East,90,2.0,3.0,65,0.00,,,0.01,Wunderground v.1.15,2013-04-21 15:35:00,
2013-04-21 09:40:00,50.7,38.1,30.09,NE,47,3.0,3.0,62,0.00,,,0.01,Wunderground v.1.15,2013-04-21 15:40:00,
2013-04-21 09:45:00,50.4,37.9,30.08,ESE,115,4.0,4.0,62,0.00,,,0.01,Wunderground v.1.15,2013-04-21 15:45:00,
2013-04-21 09:55:00,51.1,38.9,30.08,East,82,2.0,3.0,63,0.00,,,0.01,Wunderground v.1.15,2013-04-21 15:55:00,
2013-04-21 10:00:00,51.1,37.7,30.08,ENE,60,3.0,3.0,60,0.00,,,0.01,Wunderground v.1.15,2013-04-21 16:00:00,
2013-04-21 10:10:00,51.4,38.8,30.08,ENE,57,3.0,3.0,62,0.00,,,0.01,Wunderground v.1.15,2013-04-21 16:10:00,
2013-04-21 10:20:00,52.6,38.2,30.09,ENE,61,1.0,1.0,58,0.00,,,0.01,Wunderground v.1.15,2013-04-21 16:20:00,
2013-04-21 10:30:00,52.7,39.2,30.08,NE,52,3.0,4.0,60,0.00,,,0.01,Wunderground v.1.15,2013-04-21 16:30:00,
2013-04-21 10:35:00,53.0,38.2,30.08,ENE,60,3.0,4.0,57,0.00,,,0.01,Wunderground v.1.15,2013-04-21 16:35:00,
2013-04-21 10:50:00,54.5,37.7,30.08,ENE,57,3.0,3.0,53,0.00,,,0.01,Wunderground v.1.15,2013-04-21 16:50:00,
2013-04-21 10:55:00,54.9,37.6,30.08,ENE,57,3.0,4.0,52,0.00,,,0.01,Wunderground v.1.15,2013-04-21 16:55:00,
2013-04-21 11:05:00,55.3,38.4,30.08,ENE,57,1.0,2.0,53,0.00,,,0.01,Wunderground v.1.15,2013-04-21 17:05:00,
2013-04-21 11:15:00,56.3,36.8,30.07,ENE,57,1.0,4.0,48,0.00,,,0.01,Wunderground v.1.15,2013-04-21 17:15:00,
2013-04-21 11:25:00,56.6,36.0,30.07,NNE,13,3.0,6.0,46,0.00,,,0.01,Wunderground v.1.15,2013-04-21 17:25:00,
2013-04-21 11:35:00,56.8,35.7,30.06,NNE,33,2.0,3.0,45,0.00,,,0.01,Wunderground v.1.15,2013-04-21 17:35:00,
2013-04-21 11:40:00,57.5,37.4,30.06,NNW,340,2.0,2.0,47,0.00,,,0.01,Wunderground v.1.15,2013-04-21 17:40:00,
2013-04-21 11:50:00,58.5,35.5,30.06,NNE,22,2.0,2.0,42,0.00,,,0.01,Wunderground v.1.15,2013-04-21 17:50:00,
2013-04-21 12:05:00,58.2,34.0,30.05,NNW,348,4.0,4.0,40,0.00,,,0.01,Wunderground v.1.15,2013-04-21 18:05:00,
2013-04-21 12:15:00,58.9,34.6,30.05,NE,38,3.0,4.0,40,0.00,,,0.01,Wunderground v.1.15,2013-04-21 18:15:00,
2013-04-21 12:25:00,59.7,34.0,30.04,SW,215,3.0,3.0,38,0.00,,,0.01,Wunderground v.1.15,2013-04-21 18:25:00,
2013-04-21 12:35:00,60.1,33.0,30.04,WNW,294,4.0,5.0,36,0.00,,,0.01,Wunderground v.1.15,2013-04-21 18:35:00,
2013-04-21 12:45:00,60.0,32.9,30.04,NW,313,3.0,3.0,36,0.00,,,0.01,Wunderground v.1.15,2013-04-21 18:45:00,
2013-04-21 12:55:00,59.9,32.2,30.03,SW,223,3.0,3.0,35,0.00,,,0.01,Wunderground v.1.15,2013-04-21 18:55:00,
2013-04-21 13:05:00,60.5,34.1,30.02,WNW,300,3.0,4.0,37,0.00,,,0.01,Wunderground v.1.15,2013-04-21 19:05:00,
2013-04-21 13:15:00,60.6,33.5,30.02,NW,309,3.0,9.0,36,0.00,,,0.01,Wunderground v.1.15,2013-04-21 19:15:00,
2013-04-21 13:25:00,61.3,31.2,30.01,North,5,6.0,8.0,32,0.00,,,0.01,Wunderground v.1.15,2013-04-21 19:25:00,
2013-04-21 13:40:00,62.1,31.9,30.00,SW,228,4.0,5.0,32,0.00,,,0.01,Wunderground v.1.15,2013-04-21 19:40:00,
2013-04-21 13:50:00,61.8,29.2,29.99,NNE,13,3.0,6.0,29,0.00,,,0.01,Wunderground v.1.15,2013-04-21 19:50:00,
2013-04-21 14:00:00,62.7,29.1,29.98,WNW,290,4.0,4.0,28,0.00,,,0.01,Wunderground v.1.15,2013-04-21 20:00:00,
2013-04-21 14:05:00,63.5,28.9,29.98,NNE,21,4.0,5.0,27,0.00,,,0.01,Wunderground v.1.15,2013-04-21 20:05:00,
2013-04-21 14:15:00,64.0,29.3,29.97,NW,324,4.0,5.0,27,0.00,,,0.01,Wunderground v.1.15,2013-04-21 20:15:00,
2013-04-21 14:25:00,64.1,29.4,29.97,NW,317,4.0,5.0,27,0.00,,,0.01,Wunderground v.1.15,2013-04-21 20:25:00,
2013-04-21 14:35:00,64.5,28.8,29.96,NNW,338,6.0,6.0,26,0.00,,,0.01,Wunderground v.1.15,2013-04-21 20:35:00,
2013-04-21 14:45:00,64.7,29.0,29.95,North,9,6.0,6.0,26,0.00,,,0.01,Wunderground v.1.15,2013-04-21 20:45:00,
2013-04-21 14:55:00,65.2,29.4,29.95,WNW,298,5.0,7.0,26,0.00,,,0.01,Wunderground v.1.15,2013-04-21 20:55:00,
2013-04-21 15:05:00,66.2,29.3,29.94,West,271,6.0,7.0,25,0.00,,,0.01,Wunderground v.1.15,2013-04-21 21:05:00,
2013-04-21 15:25:00,65.6,28.8,29.93,West,281,4.0,6.0,25,0.00,,,0.01,Wunderground v.1.15,2013-04-21 21:25:00,
2013-04-21 15:35:00,66.4,26.4,29.92,NW,309,4.0,4.0,22,0.00,,,0.01,Wunderground v.1.15,2013-04-21 21:35:00,
2013-04-21 15:40:00,66.6,26.5,29.92,NNW,331,5.0,11.0,22,0.00,,,0.01,Wunderground v.1.15,2013-04-21 21:40:00,
2013-04-21 15:50:00,66.7,21.8,29.92,WNW,292,6.0,7.0,18,0.00,,,0.01,Wunderground v.1.15,2013-04-21 21:50:00,
2013-04-21 16:00:00,66.5,22.9,29.92,WNW,289,6.0,6.0,19,0.00,,,0.01,Wunderground v.1.15,2013-04-21 22:00:00,
2013-04-21 16:05:00,66.9,25.7,29.92,NW,325,5.0,10.0,21,0.00,,,0.01,Wunderground v.1.15,2013-04-21 22:05:00,
2013-04-21 16:10:00,67.2,27.0,29.91,NW,318,5.0,5.0,22,0.00,,,0.01,Wunderground v.1.15,2013-04-21 22:10:00,
2013-04-21 16:20:00,66.3,26.3,29.91,WNW,287,6.0,7.0,22,0.00,,,0.01,Wunderground v.1.15,2013-04-21 22:20:00,
2013-04-21 16:25:00,66.4,25.2,29.90,NNW,347,5.0,7.0,21,0.00,,,0.01,Wunderground v.1.15,2013-04-21 22:25:00,
2013-04-21 16:35:00,67.2,24.7,29.90,NW,321,4.0,4.0,20,0.00,,,0.01,Wunderground v.1.15,2013-04-21 22:35:00,
2013-04-21 16:40:00,67.3,23.6,29.90,SW,227,3.0,5.0,19,0.00,,,0.01,Wunderground v.1.15,2013-04-21 22:40:00,
2013-04-21 16:50:00,67.6,25.1,29.89,NNW,328,5.0,5.0,20,0.00,,,0.01,Wunderground v.1.15,2013-04-21 22:50:00,
2013-04-21 16:55:00,67.4,23.7,29.89,SW,236,5.0,5.0,19,0.00,,,0.01,Wunderground v.1.15,2013-04-21 22:55:00,
2013-04-21 17:05:00,67.5,22.5,29.89,WNW,283,4.0,7.0,18,0.00,,,0.01,Wunderground v.1.15,2013-04-21 23:05:00,
2013-04-21 17:15:00,65.9,19.8,29.89,SSW,200,6.0,6.0,17,0.00,,,0.01,Wunderground v.1.15,2013-04-21 23:15:00,
2013-04-21 17:20:00,65.8,21.1,29.88,West,279,5.0,5.0,18,0.00,,,0.01,Wunderground v.1.15,2013-04-21 23:20:00,
2013-04-21 17:30:00,66.5,22.9,29.88,West,273,4.0,12.0,19,0.00,,,0.01,Wunderground v.1.15,2013-04-21 23:30:00,
2013-04-21 17:40:00,66.5,21.6,29.88,West,261,4.0,4.0,18,0.00,,,0.01,Wunderground v.1.15,2013-04-21 23:40:00,
2013-04-21 17:50:00,66.7,23.1,29.88,WSW,255,5.0,5.0,19,0.00,,,0.01,Wunderground v.1.15,2013-04-21 23:50:00,
2013-04-21 18:00:00,66.6,24.2,29.88,West,280,3.0,4.0,20,0.00,,,0.01,Wunderground v.1.15,2013-04-22 00:00:00,
2013-04-21 18:05:00,66.5,24.2,29.87,SW,220,3.0,5.0,20,0.00,,,0.01,Wunderground v.1.15,2013-04-22 00:05:00,
2013-04-21 18:15:00,65.6,23.4,29.87,WNW,284,5.0,6.0,20,0.00,,,0.01,Wunderground v.1.15,2013-04-22 00:15:00,
2013-04-21 18:25:00,64.9,24.0,29.87,SW,217,4.0,8.0,21,0.00,,,0.01,Wunderground v.1.15,2013-04-22 00:25:00,
2013-04-21 18:30:00,64.9,24.0,29.87,SW,220,5.0,5.0,21,0.00,,,0.01,Wunderground v.1.15,2013-04-22 00:30:00,
2013-04-21 18:40:00,64.9,24.0,29.86,West,281,3.0,3.0,21,0.00,,,0.01,Wunderground v.1.15,2013-04-22 00:40:00,
2013-04-21 18:50:00,64.8,23.9,29.86,West,274,3.0,3.0,21,0.00,,,0.01,Wunderground v.1.15,2013-04-22 00:50:00,
2013-04-21 18:55:00,64.3,23.5,29.86,WSW,248,5.0,11.0,21,0.00,,,0.01,Wunderground v.1.15,2013-04-22 00:55:00,
2013-04-21 19:05:00,63.4,23.8,29.86,SW,215,6.0,7.0,22,0.00,,,0.01,Wunderground v.1.15,2013-04-22 01:05:00,
2013-04-21 19:15:00,63.0,23.5,29.86,West,259,2.0,4.0,22,0.00,,,0.01,Wunderground v.1.15,2013-04-22 01:15:00,
2013-04-21 19:25:00,62.6,24.2,29.86,SW,219,1.0,1.0,23,0.00,,,0.01,Wunderground v.1.15,2013-04-22 01:25:00,
2013-04-21 19:35:00,61.8,25.6,29.86,SW,219,0.0,1.0,25,0.00,,,0.01,Wunderground v.1.15,2013-04-22 01:35:00,
2013-04-21 19:45:00,61.6,24.4,29.86,West,271,2.0,2.0,24,0.00,,,0.01,Wunderground v.1.15,2013-04-22 01:45:00,
2013-04-21 19:55:00,61.8,24.6,29.86,SW,216,1.0,1.0,24,0.00,,,0.01,Wunderground v.1.15,2013-04-22 01:55:00,
2013-04-21 20:00:00,61.6,24.4,29.86,SW,217,1.0,1.0,24,0.00,,,0.01,Wunderground v.1.15,2013-04-22 02:00:00,
2013-04-21 20:05:00,61.3,25.1,29.86,SW,223,1.0,1.0,25,0.00,,,0.01,Wunderground v.1.15,2013-04-22 02:05:00,
2013-04-21 20:15:00,61.0,25.8,29.86,SSW,199,2.0,2.0,26,0.00,,,0.01,Wunderground v.1.15,2013-04-22 02:15:00,
2013-04-21 20:25:00,60.7,25.6,29.85,West,281,1.0,3.0,26,0.00,,,0.01,Wunderground v.1.15,2013-04-22 02:25:00,
2013-04-21 20:40:00,59.7,24.7,29.85,WSW,249,0.0,0.0,26,0.00,,,0.01,Wunderground v.1.15,2013-04-22 02:40:00,
2013-04-21 20:45:00,59.6,25.5,29.85,SW,215,1.0,1.0,27,0.00,,,0.01,Wunderground v.1.15,2013-04-22 02:45:00,
2013-04-21 20:50:00,59.4,25.4,29.85,West,281,1.0,6.0,27,0.00,,,0.01,Wunderground v.1.15,2013-04-22 02:50:00,
2013-04-21 21:00:00,59.5,25.5,29.86,SW,224,3.0,4.0,27,0.00,,,0.01,Wunderground v.1.15,2013-04-22 03:00:00,
2013-04-21 21:05:00,59.6,25.5,29.86,SW,227,5.0,6.0,27,0.00,,,0.01,Wunderground v.1.15,2013-04-22 03:05:00,
2013-04-21 21:10:00,59.5,25.5,29.86,SW,224,6.0,6.0,27,0.00,,,0.01,Wunderground v.1.15,2013-04-22 03:10:00,
2013-04-21 21:20:00,59.5,25.5,29.86,West,279,5.0,5.0,27,0.00,,,0.01,Wunderground v.1.15,2013-04-22 03:20:00,
2013-04-21 21:30:00,59.3,25.3,29.86,WSW,249,6.0,8.0,27,0.00,,,0.01,Wunderground v.1.15,2013-04-22 03:30:00,
2013-04-21 21:40:00,59.3,26.2,29.86,SW,227,7.0,7.0,28,0.00,,,0.01,Wunderground v.1.15,2013-04-22 03:40:00,
2013-04-21 21:50:00,59.0,25.9,29.86,SSW,206,7.0,7.0,28,0.00,,,0.01,Wunderground v.1.15,2013-04-22 03:50:00,
2013-04-21 22:05:00,59.0,26.8,29.86,SW,218,5.0,5.0,29,0.00,,,0.01,Wunderground v.1.15,2013-04-22 04:05:00,
2013-04-21 22:10:00,58.9,25.8,29.85,SW,217,4.0,5.0,28,0.00,,,0.01,Wunderground v.1.15,2013-04-22 04:10:00,
2013-04-21 22:15:00,58.8,26.6,29.86,SW,217,2.0,2.0,29,0.00,,,0.01,Wunderground v.1.15,2013-04-22 04:15:00,
2013-04-21 22:20:00,58.4,26.2,29.86,SW,217,0.0,2.0,29,0.00,,,0.01,Wunderground v.1.15,2013-04-22 04:20:00,
2013-04-21 22:30:00,57.4,26.2,29.85,SW,217,0.0,0.0,30,0.00,,,0.01,Wunderground v.1.15,2013-04-22 04:30:00,
2013-04-21 22:40:00,56.9,25.7,29.85,SW,217,0.0,0.0,30,0.00,,,0.01,Wunderground v.1.15,2013-04-22 04:40:00,
2013-04-21 22:50:00,56.5,27.7,29.85,NW,314,1.0,4.0,33,0.00,,,0.01,Wunderground v.1.15,2013-04-22 04:50:00,
2013-04-21 23:00:00,55.5,27.6,29.85,NW,314,1.0,1.0,34,0.00,,,0.01,Wunderground v.1.15,2013-04-22 05:00:00,
2013-04-21 23:05:00,55.2,27.3,29.85,NW,314,1.0,1.0,34,0.00,,,0.01,Wunderground v.1.15,2013-04-22 05:05:00,
2013-04-21 23:15:00,55.0,26.4,29.85,NW,314,0.0,0.0,33,0.00,,,0.01,Wunderground v.1.15,2013-04-22 05:15:00,
2013-04-21 23:20:00,55.8,26.3,29.85,NW,314,0.0,0.0,32,0.00,,,0.01,Wunderground v.1.15,2013-04-22 05:20:00,
2013-04-21 23:30:00,56.3,26.0,29.84,NW,314,0.0,0.0,31,0.00,,,0.01,Wunderground v.1.15,2013-04-22 05:30:00,
2013-04-21 23:45:00,56.4,27.6,29.83,NW,314,1.0,1.0,33,0.00,,,0.01,Wunderground v.1.15,2013-04-22 05:45:00,
2013-04-21 23:50:00,56.3,27.5,29.83,NW,314,0.0,1.0,33,0.00,,,0.01,Wunderground v.1.15,2013-04-22 05:50:00,